createdAt,value
2022-10-06T00:00:04.102Z,70.10
2022-10-06T00:00:12.656Z,70.06
2022-10-06T00:00:24.115Z,69.97
2022-10-06T00:00:34.091Z,70.10
2022-10-06T00:00:42.684Z,70.11
2022-10-06T00:00:54.102Z,70.02
2022-10-06T00:01:04.165Z,70.09
2022-10-06T00:01:14.179Z,70.08
2022-10-06T00:01:22.690Z,70.06
2022-10-06T00:01:34.093Z,69.99
2022-10-06T00:01:44.125Z,70.12
2022-10-06T00:01:54.072Z,70.15
2022-10-06T00:02:04.090Z,70.14
2022-10-06T00:02:14.127Z,70.16
2022-10-06T00:02:23.644Z,70.17
2022-10-06T00:02:32.687Z,70.16
2022-10-06T00:02:42.776Z,70.09
2022-10-06T00:02:52.673Z,70.09
2022-10-06T00:03:02.623Z,70.07
2022-10-06T00:03:14.092Z,70.07
2022-10-06T00:03:24.092Z,70.15
2022-10-06T00:03:32.637Z,70.11
2022-10-06T00:03:44.092Z,70.05
2022-10-06T00:03:54.072Z,70.14
2022-10-06T00:04:04.076Z,70.15
2022-10-06T00:04:12.611Z,70.09
2022-10-06T00:04:23.544Z,69.99
2022-10-06T00:04:32.609Z,70.09
2022-10-06T00:04:42.642Z,70.03
2022-10-06T00:04:52.625Z,70.03
2022-10-06T00:05:04.063Z,70.08
2022-10-06T00:05:14.053Z,70.18
2022-10-06T00:05:22.595Z,70.15
2022-10-06T00:05:32.613Z,70.02
2022-10-06T00:05:42.615Z,70.09
2022-10-06T00:05:52.613Z,70.07
2022-10-06T00:06:04.073Z,70.01
2022-10-06T00:06:13.364Z,70.11
2022-10-06T00:06:22.643Z,69.98
2022-10-06T00:06:34.053Z,69.96
2022-10-06T00:06:44.043Z,70.05
2022-10-06T00:06:52.594Z,70.01
2022-10-06T00:07:03.899Z,69.90
2022-10-06T00:07:14.056Z,70.01
2022-10-06T00:07:22.616Z,70.01
2022-10-06T00:07:34.043Z,69.88
2022-10-06T00:07:44.033Z,70.01
2022-10-06T00:07:54.043Z,69.99
2022-10-06T00:08:02.616Z,69.94
2022-10-06T00:08:12.593Z,69.83
2022-10-06T00:08:24.060Z,69.89
2022-10-06T00:08:32.576Z,69.98
2022-10-06T00:08:42.658Z,69.85
2022-10-06T00:08:53.556Z,69.94
2022-10-06T00:09:03.543Z,69.97
2022-10-06T00:09:14.041Z,69.98
2022-10-06T00:09:22.575Z,70.04
2022-10-06T00:09:33.353Z,69.89
2022-10-06T00:09:42.572Z,69.99
2022-10-06T00:09:53.530Z,69.92
2022-10-06T00:10:02.585Z,70.01
2022-10-06T00:10:12.564Z,69.96
2022-10-06T00:10:22.603Z,70.04
2022-10-06T00:10:32.587Z,69.98
2022-10-06T00:10:42.583Z,70.02
2022-10-06T00:10:54.023Z,70.00
2022-10-06T00:11:04.024Z,70.14
2022-10-06T00:11:14.013Z,70.07
2022-10-06T00:11:22.566Z,70.03
2022-10-06T00:11:32.622Z,69.93
2022-10-06T00:11:44.004Z,69.99
2022-10-06T00:11:54.014Z,70.06
2022-10-06T00:12:02.576Z,70.06
2022-10-06T00:12:12.565Z,69.96
2022-10-06T00:12:23.144Z,70.05
2022-10-06T00:12:32.552Z,70.07
2022-10-06T00:12:43.865Z,70.01
2022-10-06T00:12:52.559Z,70.10
2022-10-06T00:13:04.042Z,70.03
2022-10-06T00:13:12.544Z,70.14
2022-10-06T00:13:24.035Z,69.99
2022-10-06T00:13:34.004Z,70.12
2022-10-06T00:13:42.545Z,70.10
2022-10-06T00:13:54.005Z,70.00
2022-10-06T00:14:03.285Z,70.13
2022-10-06T00:14:13.995Z,70.09
2022-10-06T00:14:23.533Z,70.13
2022-10-06T00:14:32.550Z,70.12
2022-10-06T00:14:44.016Z,70.07
2022-10-06T00:14:53.975Z,70.18
2022-10-06T00:15:03.992Z,70.16
2022-10-06T00:15:13.995Z,70.19
2022-10-06T00:15:23.364Z,70.21
2022-10-06T00:15:34.043Z,70.19
2022-10-06T00:15:42.557Z,70.31
2022-10-06T00:15:53.127Z,70.26
2022-10-06T00:16:04.005Z,70.39
2022-10-06T00:16:12.663Z,70.46
2022-10-06T00:16:23.517Z,70.34
2022-10-06T00:16:33.980Z,70.50
2022-10-06T00:16:43.976Z,70.53
2022-10-06T00:16:52.546Z,70.46
2022-10-06T00:17:02.542Z,70.35
2022-10-06T00:17:13.339Z,70.40
2022-10-06T00:17:24.016Z,70.48
2022-10-06T00:17:32.528Z,70.50
2022-10-06T00:17:43.976Z,70.37
2022-10-06T00:17:53.983Z,70.48
2022-10-06T00:18:02.758Z,70.42
2022-10-06T00:18:12.515Z,70.29
2022-10-06T00:18:23.979Z,70.34
2022-10-06T00:18:33.959Z,70.48
2022-10-06T00:18:43.955Z,70.44
2022-10-06T00:18:53.968Z,70.39
2022-10-06T00:19:02.508Z,70.34
2022-10-06T00:19:12.497Z,70.20
2022-10-06T00:19:22.503Z,70.29
2022-10-06T00:19:32.509Z,70.27
2022-10-06T00:19:43.941Z,70.29
2022-10-06T00:19:52.580Z,70.37
2022-10-06T00:20:02.505Z,70.26
2022-10-06T00:20:13.950Z,70.30
2022-10-06T00:20:22.577Z,70.40
2022-10-06T00:20:32.488Z,70.23
2022-10-06T00:20:42.547Z,70.23
2022-10-06T00:20:52.586Z,70.24
2022-10-06T00:21:02.618Z,70.27
2022-10-06T00:21:13.940Z,70.28
2022-10-06T00:21:22.578Z,70.33
2022-10-06T00:21:32.515Z,70.26
2022-10-06T00:21:42.479Z,70.24
2022-10-06T00:21:52.588Z,70.25
2022-10-06T00:22:03.927Z,70.24
2022-10-06T00:22:12.488Z,70.32
2022-10-06T00:22:23.949Z,70.15
2022-10-06T00:22:32.498Z,70.26
2022-10-06T00:22:42.512Z,70.17
2022-10-06T00:22:53.958Z,70.19
2022-10-06T00:23:03.938Z,70.24
2022-10-06T00:23:13.973Z,70.25
2022-10-06T00:23:23.933Z,70.19
2022-10-06T00:23:32.478Z,70.21
2022-10-06T00:23:42.502Z,70.11
2022-10-06T00:23:52.485Z,70.14
2022-10-06T00:24:02.468Z,70.18
2022-10-06T00:24:13.440Z,70.19
2022-10-06T00:24:23.928Z,70.29
2022-10-06T00:24:33.931Z,70.25
2022-10-06T00:24:43.932Z,70.23
2022-10-06T00:24:53.920Z,70.21
2022-10-06T00:25:03.931Z,70.20
2022-10-06T00:25:13.949Z,70.22
2022-10-06T00:25:23.908Z,70.26
2022-10-06T00:25:33.918Z,70.23
2022-10-06T00:25:42.489Z,70.24
2022-10-06T00:25:52.591Z,70.15
2022-10-06T00:26:02.470Z,70.25
2022-10-06T00:26:12.511Z,70.33
2022-10-06T00:26:22.621Z,70.36
2022-10-06T00:26:33.460Z,70.38
2022-10-06T00:26:42.479Z,70.39
2022-10-06T00:26:53.931Z,70.31
2022-10-06T00:27:03.930Z,70.41
2022-10-06T00:27:12.599Z,70.33
2022-10-06T00:27:23.878Z,70.23
2022-10-06T00:27:33.978Z,70.31
2022-10-06T00:27:43.882Z,70.25
2022-10-06T00:27:53.332Z,70.21
2022-10-06T00:28:03.989Z,70.18
2022-10-06T00:28:14.007Z,70.23
2022-10-06T00:28:22.479Z,70.24
2022-10-06T00:28:33.164Z,70.12
2022-10-06T00:28:43.936Z,70.27
2022-10-06T00:28:53.890Z,70.26
2022-10-06T00:29:03.879Z,70.20
2022-10-06T00:29:12.431Z,70.22
2022-10-06T00:29:23.889Z,70.08
2022-10-06T00:29:33.882Z,70.26
2022-10-06T00:29:42.444Z,70.22
2022-10-06T00:29:53.402Z,70.12
2022-10-06T00:30:03.881Z,70.20
2022-10-06T00:30:13.870Z,70.27
2022-10-06T00:30:22.850Z,70.23
2022-10-06T00:30:32.421Z,70.14
2022-10-06T00:30:46.418Z,70.14
2022-10-06T00:30:53.915Z,70.52
2022-10-06T00:31:03.427Z,70.42
2022-10-06T00:31:13.915Z,70.28
2022-10-06T00:31:22.875Z,70.29
2022-10-06T00:31:32.525Z,70.20
2022-10-06T00:31:43.881Z,70.27
2022-10-06T00:31:52.974Z,70.35
2022-10-06T00:32:03.859Z,70.23
2022-10-06T00:32:13.179Z,70.33
2022-10-06T00:32:23.131Z,70.27
2022-10-06T00:32:32.429Z,70.25
2022-10-06T00:32:43.890Z,70.22
2022-10-06T00:32:52.561Z,70.34
2022-10-06T00:33:03.116Z,70.20
2022-10-06T00:33:12.450Z,70.27
2022-10-06T00:33:22.409Z,70.27
2022-10-06T00:33:33.900Z,70.28
2022-10-06T00:33:43.871Z,70.38
2022-10-06T00:33:52.401Z,70.36
2022-10-06T00:34:03.871Z,70.24
2022-10-06T00:34:13.870Z,70.39
2022-10-06T00:34:22.488Z,70.39
2022-10-06T00:34:33.221Z,70.28
2022-10-06T00:34:43.872Z,70.37
2022-10-06T00:34:53.842Z,70.38
2022-10-06T00:35:02.422Z,70.38
2022-10-06T00:35:13.861Z,70.31
2022-10-06T00:35:22.420Z,70.43
2022-10-06T00:35:33.875Z,70.32
2022-10-06T00:35:42.433Z,70.46
2022-10-06T00:35:52.403Z,70.28
2022-10-06T00:36:03.842Z,70.32
2022-10-06T00:36:12.404Z,70.49
2022-10-06T00:36:23.842Z,70.35
2022-10-06T00:36:32.400Z,70.46
2022-10-06T00:36:42.399Z,70.32
2022-10-06T00:36:53.852Z,70.38
2022-10-06T00:37:02.412Z,70.47
2022-10-06T00:37:13.847Z,70.34
2022-10-06T00:37:22.393Z,70.47
2022-10-06T00:37:33.173Z,70.35
2022-10-06T00:37:43.912Z,70.44
2022-10-06T00:37:52.371Z,70.47
2022-10-06T00:38:03.845Z,70.37
2022-10-06T00:38:12.397Z,70.48
2022-10-06T00:38:22.393Z,70.40
2022-10-06T00:38:33.837Z,70.36
2022-10-06T00:38:43.813Z,70.48
2022-10-06T00:38:52.380Z,70.40
2022-10-06T00:39:03.826Z,70.33
2022-10-06T00:39:13.272Z,70.42
2022-10-06T00:39:22.398Z,70.37
2022-10-06T00:39:33.853Z,70.34
2022-10-06T00:39:42.376Z,70.41
2022-10-06T00:39:52.504Z,70.32
2022-10-06T00:40:02.363Z,70.36
2022-10-06T00:40:13.844Z,70.34
2022-10-06T00:40:23.805Z,70.42
2022-10-06T00:40:33.806Z,70.40
2022-10-06T00:40:42.361Z,70.40
2022-10-06T00:40:53.364Z,70.31
2022-10-06T00:41:02.544Z,70.47
2022-10-06T00:41:13.308Z,70.40
2022-10-06T00:41:22.514Z,70.47
2022-10-06T00:41:32.459Z,70.42
2022-10-06T00:41:43.785Z,70.42
2022-10-06T00:41:53.273Z,70.51
2022-10-06T00:42:03.814Z,70.48
2022-10-06T00:42:13.795Z,70.52
2022-10-06T00:42:22.625Z,70.49
2022-10-06T00:42:33.774Z,70.45
2022-10-06T00:42:42.345Z,70.55
2022-10-06T00:42:52.354Z,70.47
2022-10-06T00:43:03.815Z,70.50
2022-10-06T00:43:13.798Z,70.60
2022-10-06T00:43:23.125Z,70.64
2022-10-06T00:43:33.806Z,70.53
2022-10-06T00:43:42.364Z,70.58
2022-10-06T00:43:53.336Z,70.45
2022-10-06T00:44:03.764Z,70.53
2022-10-06T00:44:12.709Z,70.55
2022-10-06T00:44:22.735Z,70.43
2022-10-06T00:44:33.765Z,70.44
2022-10-06T00:44:43.776Z,70.58
2022-10-06T00:44:52.325Z,70.55
2022-10-06T00:45:03.767Z,70.40
2022-10-06T00:45:12.715Z,70.56
2022-10-06T00:45:22.545Z,70.47
2022-10-06T00:45:33.767Z,70.45
2022-10-06T00:45:43.775Z,70.53
2022-10-06T00:45:52.412Z,70.49
2022-10-06T00:46:02.644Z,70.40
2022-10-06T00:46:12.849Z,70.43
2022-10-06T00:46:22.785Z,70.42
2022-10-06T00:46:32.850Z,70.45
2022-10-06T00:46:42.841Z,70.46
2022-10-06T00:46:52.307Z,70.42
2022-10-06T00:47:02.795Z,70.38
2022-10-06T00:47:12.826Z,70.46
2022-10-06T00:47:22.864Z,70.41
2022-10-06T00:47:32.896Z,70.46
2022-10-06T00:47:42.827Z,70.44
2022-10-06T00:47:52.866Z,70.43
2022-10-06T00:48:02.922Z,70.41
2022-10-06T00:48:12.935Z,70.44
2022-10-06T00:48:22.866Z,70.45
2022-10-06T00:48:32.911Z,70.45
2022-10-06T00:48:42.936Z,70.48
2022-10-06T00:48:52.984Z,70.54
2022-10-06T00:49:02.916Z,70.49
2022-10-06T00:49:13.251Z,70.48
2022-10-06T00:49:22.296Z,70.53
2022-10-06T00:49:32.326Z,70.48
2022-10-06T00:49:43.767Z,70.53
2022-10-06T00:49:52.305Z,70.57
2022-10-06T00:50:02.306Z,70.45
2022-10-06T00:50:12.774Z,70.46
2022-10-06T00:50:22.316Z,70.53
2022-10-06T00:50:32.308Z,70.47
2022-10-06T00:50:42.266Z,70.51
2022-10-06T00:50:52.312Z,70.48
2022-10-06T00:51:02.309Z,70.49
2022-10-06T00:51:12.274Z,70.50
2022-10-06T00:51:23.752Z,70.45
2022-10-06T00:51:33.728Z,70.54
2022-10-06T00:51:42.286Z,70.45
2022-10-06T00:51:53.746Z,70.38
2022-10-06T00:52:02.316Z,70.48
2022-10-06T00:52:13.047Z,70.34
2022-10-06T00:52:23.738Z,70.47
2022-10-06T00:52:32.276Z,70.47
2022-10-06T00:52:42.277Z,70.38
2022-10-06T00:52:53.237Z,70.43
2022-10-06T00:53:02.267Z,70.46
2022-10-06T00:53:12.640Z,70.37
2022-10-06T00:53:23.699Z,70.43
2022-10-06T00:53:33.177Z,70.51
2022-10-06T00:53:43.737Z,70.41
2022-10-06T00:53:52.277Z,70.41
2022-10-06T00:54:02.275Z,70.31
2022-10-06T00:54:13.121Z,70.35
2022-10-06T00:54:23.707Z,70.41
2022-10-06T00:54:32.268Z,70.42
2022-10-06T00:54:42.308Z,70.28
2022-10-06T00:54:53.047Z,70.33
2022-10-06T00:55:03.708Z,70.44
2022-10-06T00:55:13.736Z,70.46
2022-10-06T00:55:22.255Z,70.40
2022-10-06T00:55:33.238Z,70.33
2022-10-06T00:55:43.729Z,70.44
2022-10-06T00:55:53.709Z,70.46
2022-10-06T00:56:03.698Z,70.43
2022-10-06T00:56:12.258Z,70.44
2022-10-06T00:56:22.245Z,70.28
2022-10-06T00:56:33.718Z,70.39
2022-10-06T00:56:43.698Z,70.51
2022-10-06T00:56:52.248Z,70.44
2022-10-06T00:57:03.099Z,70.32
2022-10-06T00:57:13.691Z,70.49
2022-10-06T00:57:23.680Z,70.50
2022-10-06T00:57:33.690Z,70.43
2022-10-06T00:57:43.698Z,70.39
2022-10-06T00:57:53.690Z,70.40
2022-10-06T00:58:03.689Z,70.39
2022-10-06T00:58:12.632Z,70.44
2022-10-06T00:58:23.709Z,70.36
2022-10-06T00:58:33.678Z,70.49
2022-10-06T00:58:43.689Z,70.47
2022-10-06T00:58:52.243Z,70.47
2022-10-06T00:59:03.689Z,70.35
2022-10-06T00:59:13.659Z,70.54
2022-10-06T00:59:23.678Z,70.50
2022-10-06T00:59:33.182Z,70.44
2022-10-06T00:59:42.228Z,70.42
2022-10-06T00:59:53.679Z,70.36
2022-10-06T01:00:03.669Z,70.48
2022-10-06T01:00:13.661Z,70.44
2022-10-06T01:00:23.672Z,70.44
2022-10-06T01:00:32.221Z,70.46
2022-10-06T01:00:42.240Z,70.40
2022-10-06T01:00:53.690Z,70.44
2022-10-06T01:01:02.210Z,70.57
2022-10-06T01:01:12.219Z,70.44
2022-10-06T01:01:23.699Z,70.46
2022-10-06T01:01:33.727Z,70.59
2022-10-06T01:01:43.253Z,70.57
2022-10-06T01:01:52.339Z,70.53
2022-10-06T01:02:03.681Z,70.51
2022-10-06T01:02:13.690Z,70.66
2022-10-06T01:02:23.685Z,70.65
2022-10-06T01:02:32.232Z,70.64
2022-10-06T01:02:43.691Z,70.54
2022-10-06T01:02:53.663Z,70.73
2022-10-06T01:03:03.739Z,70.72
2022-10-06T01:03:12.210Z,70.73
2022-10-06T01:03:23.672Z,70.55
2022-10-06T01:03:32.199Z,70.76
2022-10-06T01:03:42.254Z,70.61
2022-10-06T01:03:52.890Z,70.70
2022-10-06T01:04:02.200Z,70.73
2022-10-06T01:04:12.221Z,70.73
2022-10-06T01:04:22.190Z,70.69
2022-10-06T01:04:33.643Z,70.75
2022-10-06T01:04:42.380Z,70.85
2022-10-06T01:04:52.171Z,70.76
2022-10-06T01:05:03.641Z,70.80
2022-10-06T01:05:13.621Z,70.93
2022-10-06T01:05:23.631Z,70.89
2022-10-06T01:05:33.652Z,70.92
2022-10-06T01:05:43.630Z,70.89
2022-10-06T01:05:53.631Z,70.90
2022-10-06T01:06:02.180Z,70.90
2022-10-06T01:06:12.171Z,70.86
2022-10-06T01:06:22.216Z,70.93
2022-10-06T01:06:32.192Z,70.94
2022-10-06T01:06:42.192Z,70.97
2022-10-06T01:06:53.706Z,71.00
2022-10-06T01:07:02.329Z,71.11
2022-10-06T01:07:13.151Z,70.98
2022-10-06T01:07:22.490Z,71.09
2022-10-06T01:07:33.117Z,71.01
2022-10-06T01:07:42.193Z,71.12
2022-10-06T01:07:52.172Z,71.08
2022-10-06T01:08:02.194Z,71.08
2022-10-06T01:08:12.176Z,71.16
2022-10-06T01:08:22.293Z,71.13
2022-10-06T01:08:32.354Z,71.22
2022-10-06T01:08:42.181Z,71.27
2022-10-06T01:08:52.502Z,71.28
2022-10-06T01:09:02.165Z,71.28
2022-10-06T01:09:13.582Z,71.24
2022-10-06T01:09:23.662Z,71.36
2022-10-06T01:09:32.162Z,71.33
2022-10-06T01:09:42.162Z,71.20
2022-10-06T01:09:53.602Z,71.27
2022-10-06T01:10:02.144Z,71.37
2022-10-06T01:10:12.351Z,71.25
2022-10-06T01:10:22.503Z,71.32
2022-10-06T01:10:33.593Z,71.30
2022-10-06T01:10:43.593Z,71.35
2022-10-06T01:10:52.123Z,71.31
2022-10-06T01:11:02.543Z,71.22
2022-10-06T01:11:13.573Z,71.27
2022-10-06T01:11:22.143Z,71.31
2022-10-06T01:11:32.243Z,71.21
2022-10-06T01:11:42.123Z,71.22
2022-10-06T01:11:52.171Z,71.25
2022-10-06T01:12:03.586Z,71.27
2022-10-06T01:12:12.132Z,71.34
2022-10-06T01:12:22.174Z,71.21
2022-10-06T01:12:33.563Z,71.22
2022-10-06T01:12:43.583Z,71.33
2022-10-06T01:12:53.573Z,71.30
2022-10-06T01:13:03.602Z,71.18
2022-10-06T01:13:13.582Z,71.18
2022-10-06T01:13:22.117Z,71.16
2022-10-06T01:13:33.563Z,71.05
2022-10-06T01:13:42.143Z,71.21
2022-10-06T01:13:52.121Z,71.07
2022-10-06T01:14:02.154Z,71.13
2022-10-06T01:14:13.553Z,71.15
2022-10-06T01:14:22.125Z,71.21
2022-10-06T01:14:33.554Z,71.09
2022-10-06T01:14:43.566Z,71.19
2022-10-06T01:14:52.136Z,71.16
2022-10-06T01:15:02.164Z,71.05
2022-10-06T01:15:13.555Z,71.10
2022-10-06T01:15:22.144Z,71.21
2022-10-06T01:15:33.577Z,71.10
2022-10-06T01:15:43.592Z,71.20
2022-10-06T01:15:52.299Z,71.16
2022-10-06T01:16:03.586Z,71.01
2022-10-06T01:16:12.155Z,71.14
2022-10-06T01:16:22.280Z,71.00
2022-10-06T01:16:33.554Z,71.08
2022-10-06T01:16:42.139Z,71.17
2022-10-06T01:16:52.243Z,71.06
2022-10-06T01:17:02.105Z,71.04
2022-10-06T01:17:12.118Z,71.07
2022-10-06T01:17:23.614Z,71.09
2022-10-06T01:17:32.109Z,71.15
2022-10-06T01:17:43.566Z,71.02
2022-10-06T01:17:53.545Z,71.10
2022-10-06T01:18:02.112Z,71.09
2022-10-06T01:18:12.110Z,71.01
2022-10-06T01:18:22.096Z,71.00
2022-10-06T01:18:32.417Z,71.05
2022-10-06T01:18:43.525Z,71.09
2022-10-06T01:18:52.086Z,71.12
2022-10-06T01:19:03.565Z,71.02
2022-10-06T01:19:12.089Z,71.20
2022-10-06T01:19:22.134Z,71.02
2022-10-06T01:19:33.554Z,71.05
2022-10-06T01:19:43.556Z,71.24
2022-10-06T01:19:52.115Z,71.13
2022-10-06T01:20:03.531Z,71.04
2022-10-06T01:20:13.535Z,71.21
2022-10-06T01:20:22.087Z,71.18
2022-10-06T01:20:32.088Z,71.11
2022-10-06T01:20:42.096Z,71.13
2022-10-06T01:20:52.173Z,71.13
2022-10-06T01:21:02.836Z,71.15
2022-10-06T01:21:12.105Z,71.17
2022-10-06T01:21:22.116Z,71.13
2022-10-06T01:21:32.093Z,71.15
2022-10-06T01:21:42.084Z,71.14
2022-10-06T01:21:52.073Z,71.21
2022-10-06T01:22:02.095Z,71.18
2022-10-06T01:22:13.506Z,71.23
2022-10-06T01:22:23.507Z,71.30
2022-10-06T01:22:33.528Z,71.23
2022-10-06T01:22:42.077Z,71.24
2022-10-06T01:22:53.517Z,71.17
2022-10-06T01:23:03.517Z,71.33
2022-10-06T01:23:12.091Z,71.26
2022-10-06T01:23:23.508Z,71.17
2022-10-06T01:23:32.997Z,71.33
2022-10-06T01:23:43.506Z,71.26
2022-10-06T01:23:53.497Z,71.28
2022-10-06T01:24:06.117Z,71.32
2022-10-06T01:24:13.498Z,71.53
2022-10-06T01:24:23.497Z,71.37
2022-10-06T01:24:33.009Z,71.30
2022-10-06T01:24:42.127Z,71.28
2022-10-06T01:24:52.528Z,71.30
2022-10-06T01:25:02.036Z,71.33
2022-10-06T01:25:12.204Z,71.31
2022-10-06T01:25:22.028Z,71.34
2022-10-06T01:25:32.058Z,71.38
2022-10-06T01:25:42.038Z,71.31
2022-10-06T01:25:53.507Z,71.30
2022-10-06T01:26:03.007Z,71.39
2022-10-06T01:26:12.593Z,71.37
2022-10-06T01:26:23.477Z,71.36
2022-10-06T01:26:33.500Z,71.38
2022-10-06T01:26:43.488Z,71.35
2022-10-06T01:26:52.029Z,71.33
2022-10-06T01:27:02.059Z,71.29
2022-10-06T01:27:13.492Z,71.37
2022-10-06T01:27:23.479Z,71.44
2022-10-06T01:27:32.029Z,71.42
2022-10-06T01:27:43.491Z,71.30
2022-10-06T01:27:53.466Z,71.42
2022-10-06T01:28:02.076Z,71.41
2022-10-06T01:28:13.539Z,71.34
2022-10-06T01:28:22.074Z,71.46
2022-10-06T01:28:33.815Z,71.34
2022-10-06T01:28:43.530Z,71.51
2022-10-06T01:28:53.459Z,71.47
2022-10-06T01:29:03.499Z,71.40
2022-10-06T01:29:13.453Z,71.46
2022-10-06T01:29:23.602Z,71.46
2022-10-06T01:29:32.002Z,71.48
2022-10-06T01:29:42.029Z,71.38
2022-10-06T01:29:53.461Z,71.49
2022-10-06T01:30:02.026Z,71.56
2022-10-06T01:30:13.460Z,71.40
2022-10-06T01:30:23.490Z,71.59
2022-10-06T01:30:31.992Z,71.55
2022-10-06T01:30:42.101Z,71.39
2022-10-06T01:30:52.330Z,71.52
2022-10-06T01:31:02.037Z,71.62
2022-10-06T01:31:12.070Z,71.55
2022-10-06T01:31:23.539Z,71.58
2022-10-06T01:31:33.023Z,71.62
2022-10-06T01:31:42.001Z,71.57
2022-10-06T01:31:53.448Z,71.50
2022-10-06T01:32:03.440Z,71.64
2022-10-06T01:32:13.438Z,71.63
2022-10-06T01:32:22.540Z,71.66
2022-10-06T01:32:33.439Z,71.61
2022-10-06T01:32:42.001Z,71.73
2022-10-06T01:32:53.447Z,71.61
2022-10-06T01:33:03.449Z,71.66
2022-10-06T01:33:13.433Z,71.66
2022-10-06T01:33:23.475Z,71.64
2022-10-06T01:33:31.970Z,71.60
2022-10-06T01:33:42.027Z,71.48
2022-10-06T01:33:53.429Z,71.46
2022-10-06T01:34:03.421Z,71.59
2022-10-06T01:34:12.853Z,71.54
2022-10-06T01:34:23.419Z,71.52
2022-10-06T01:34:31.970Z,71.54
2022-10-06T01:34:42.866Z,71.48
2022-10-06T01:34:53.421Z,71.54
2022-10-06T01:35:01.960Z,71.56
2022-10-06T01:35:11.978Z,71.46
2022-10-06T01:35:22.001Z,71.49
2022-10-06T01:35:32.200Z,71.53
2022-10-06T01:35:41.950Z,71.56
2022-10-06T01:35:52.001Z,71.55
2022-10-06T01:36:03.421Z,71.57
2022-10-06T01:36:11.965Z,71.65
2022-10-06T01:36:23.420Z,71.58
2022-10-06T01:36:33.455Z,71.67
2022-10-06T01:36:43.400Z,71.68
2022-10-06T01:36:51.981Z,71.66
2022-10-06T01:37:01.970Z,71.54
2022-10-06T01:37:13.418Z,71.63
2022-10-06T01:37:21.938Z,71.76
2022-10-06T01:37:33.408Z,71.63
2022-10-06T01:37:41.937Z,71.84
2022-10-06T01:37:53.397Z,71.65
2022-10-06T01:38:02.739Z,71.75
2022-10-06T01:38:13.399Z,71.72
2022-10-06T01:38:23.389Z,71.75
2022-10-06T01:38:32.524Z,71.72
2022-10-06T01:38:41.942Z,71.66
2022-10-06T01:38:52.169Z,71.54
2022-10-06T01:39:03.370Z,71.48
2022-10-06T01:39:11.928Z,71.54
2022-10-06T01:39:21.929Z,71.43
2022-10-06T01:39:32.328Z,71.42
2022-10-06T01:39:43.359Z,71.48
2022-10-06T01:39:51.921Z,71.54
2022-10-06T01:40:02.332Z,71.43
2022-10-06T01:40:11.918Z,71.47
2022-10-06T01:40:22.418Z,71.43
2022-10-06T01:40:32.484Z,71.45
2022-10-06T01:40:43.368Z,71.42
2022-10-06T01:40:52.423Z,71.45
2022-10-06T01:41:02.439Z,71.32
2022-10-06T01:41:12.390Z,71.38
2022-10-06T01:41:21.910Z,71.35
2022-10-06T01:41:32.439Z,71.32
2022-10-06T01:41:41.899Z,71.38
2022-10-06T01:41:52.410Z,71.30
2022-10-06T01:42:02.449Z,71.36
2022-10-06T01:42:12.490Z,71.33
2022-10-06T01:42:22.540Z,71.34
2022-10-06T01:42:32.450Z,71.39
2022-10-06T01:42:42.487Z,71.35
2022-10-06T01:42:52.537Z,71.36
2022-10-06T01:43:02.571Z,71.38
2022-10-06T01:43:12.118Z,71.38
2022-10-06T01:43:22.031Z,71.32
2022-10-06T01:43:32.581Z,71.32
2022-10-06T01:43:42.712Z,71.38
2022-10-06T01:43:52.139Z,71.41
2022-10-06T01:44:01.882Z,71.33
2022-10-06T01:44:11.901Z,71.31
2022-10-06T01:44:22.540Z,71.31
2022-10-06T01:44:31.879Z,71.36
2022-10-06T01:44:41.952Z,71.26
2022-10-06T01:44:52.640Z,71.32
2022-10-06T01:45:01.872Z,71.29
2022-10-06T01:45:12.852Z,71.23
2022-10-06T01:45:21.898Z,71.33
2022-10-06T01:45:31.892Z,71.23
2022-10-06T01:45:42.770Z,71.23
2022-10-06T01:45:53.351Z,71.27
2022-10-06T01:46:01.922Z,71.26
2022-10-06T01:46:12.850Z,71.12
2022-10-06T01:46:22.012Z,71.25
2022-10-06T01:46:31.905Z,71.20
2022-10-06T01:46:43.351Z,71.18
2022-10-06T01:46:51.989Z,71.28
2022-10-06T01:47:02.651Z,71.19
2022-10-06T01:47:13.341Z,71.30
2022-10-06T01:47:21.871Z,71.28
2022-10-06T01:47:31.978Z,71.21
2022-10-06T01:47:41.862Z,71.24
2022-10-06T01:47:52.823Z,71.27
2022-10-06T01:48:01.899Z,71.35
2022-10-06T01:48:13.327Z,71.27
2022-10-06T01:48:22.823Z,71.45
2022-10-06T01:48:33.332Z,71.35
2022-10-06T01:48:43.322Z,71.43
2022-10-06T01:48:52.821Z,71.35
2022-10-06T01:49:02.462Z,71.31
2022-10-06T01:49:13.332Z,71.35
2022-10-06T01:49:22.822Z,71.45
2022-10-06T01:49:31.860Z,71.37
2022-10-06T01:49:43.332Z,71.36
2022-10-06T01:49:53.314Z,71.53
2022-10-06T01:50:03.301Z,71.54
2022-10-06T01:50:13.313Z,71.50
2022-10-06T01:50:22.822Z,71.47
2022-10-06T01:50:33.325Z,71.46
2022-10-06T01:50:41.862Z,71.55
2022-10-06T01:50:53.315Z,71.46
2022-10-06T01:51:03.305Z,71.61
2022-10-06T01:51:12.792Z,71.54
2022-10-06T01:51:23.323Z,71.36
2022-10-06T01:51:31.893Z,71.35
2022-10-06T01:51:43.270Z,71.18
2022-10-06T01:51:51.834Z,71.25
2022-10-06T01:52:03.301Z,71.06
2022-10-06T01:52:11.934Z,71.18
2022-10-06T01:52:21.824Z,71.02
2022-10-06T01:52:33.304Z,71.06
2022-10-06T01:52:42.863Z,71.11
2022-10-06T01:52:53.280Z,71.08
2022-10-06T01:53:01.841Z,71.12
2022-10-06T01:53:13.303Z,71.02
2022-10-06T01:53:23.304Z,71.16
2022-10-06T01:53:32.791Z,71.12
2022-10-06T01:53:43.287Z,71.07
2022-10-06T01:53:51.813Z,71.06
2022-10-06T01:54:03.302Z,70.95
2022-10-06T01:54:11.829Z,71.13
2022-10-06T01:54:23.283Z,70.99
2022-10-06T01:54:33.272Z,71.10
2022-10-06T01:54:43.264Z,71.10
2022-10-06T01:54:51.811Z,71.03
2022-10-06T01:55:01.886Z,70.95
2022-10-06T01:55:13.263Z,70.95
2022-10-06T01:55:23.294Z,71.01
2022-10-06T01:55:31.826Z,70.92
2022-10-06T01:55:43.291Z,70.85
2022-10-06T01:55:53.253Z,70.98
2022-10-06T01:56:01.824Z,70.91
2022-10-06T01:56:12.164Z,70.87
2022-10-06T01:56:21.804Z,70.96
2022-10-06T01:56:33.268Z,70.91
2022-10-06T01:56:41.853Z,70.98
2022-10-06T01:56:53.265Z,70.87
2022-10-06T01:57:02.135Z,70.88
2022-10-06T01:57:12.691Z,70.79
2022-10-06T01:57:22.204Z,70.83
2022-10-06T01:57:33.255Z,70.75
2022-10-06T01:57:41.799Z,70.78
2022-10-06T01:57:52.213Z,70.68
2022-10-06T01:58:03.235Z,70.80
2022-10-06T01:58:13.245Z,70.83
2022-10-06T01:58:21.794Z,70.84
2022-10-06T01:58:33.569Z,70.70
2022-10-06T01:58:41.804Z,70.93
2022-10-06T01:58:53.265Z,70.72
2022-10-06T01:59:03.245Z,70.80
2022-10-06T01:59:13.233Z,70.83
2022-10-06T01:59:22.323Z,70.78
2022-10-06T01:59:32.256Z,70.71
2022-10-06T01:59:43.243Z,70.73
2022-10-06T01:59:54.826Z,70.80
2022-10-06T02:00:02.675Z,70.98
2022-10-06T02:00:13.238Z,70.85
2022-10-06T02:00:22.326Z,70.81
2022-10-06T02:00:31.854Z,70.69
2022-10-06T02:00:43.228Z,70.67
2022-10-06T02:00:51.892Z,70.75
2022-10-06T02:01:03.255Z,70.68
2022-10-06T02:01:11.822Z,70.78
2022-10-06T02:01:22.358Z,70.69
2022-10-06T02:01:31.800Z,70.74
2022-10-06T02:01:41.916Z,70.74
2022-10-06T02:01:52.573Z,70.75
2022-10-06T02:02:02.009Z,70.77
2022-10-06T02:02:13.204Z,70.75
2022-10-06T02:02:22.507Z,70.78
2022-10-06T02:02:32.693Z,70.69
2022-10-06T02:02:41.787Z,70.72
2022-10-06T02:02:52.037Z,70.61
2022-10-06T02:03:02.485Z,70.65
2022-10-06T02:03:12.626Z,70.73
2022-10-06T02:03:22.459Z,70.73
2022-10-06T02:03:32.488Z,70.70
2022-10-06T02:03:43.207Z,70.68
2022-10-06T02:03:52.456Z,70.75
2022-10-06T02:04:02.529Z,70.69
2022-10-06T02:04:11.876Z,70.71
2022-10-06T02:04:22.606Z,70.70
2022-10-06T02:04:32.496Z,70.81
2022-10-06T02:04:41.745Z,70.79
2022-10-06T02:04:51.853Z,70.73
2022-10-06T02:05:03.186Z,70.79
2022-10-06T02:05:11.788Z,70.85
2022-10-06T02:05:22.619Z,70.76
2022-10-06T02:05:33.187Z,70.89
2022-10-06T02:05:41.756Z,70.86
2022-10-06T02:05:53.244Z,70.81
2022-10-06T02:06:01.758Z,70.94
2022-10-06T02:06:11.892Z,70.82
2022-10-06T02:06:23.232Z,70.87
2022-10-06T02:06:31.834Z,70.95
2022-10-06T02:06:42.620Z,70.80
2022-10-06T02:06:53.206Z,70.88
2022-10-06T02:07:01.727Z,70.93
2022-10-06T02:07:12.246Z,70.80
2022-10-06T02:07:21.759Z,70.83
2022-10-06T02:07:31.709Z,70.76
2022-10-06T02:07:41.728Z,70.82
2022-10-06T02:07:52.289Z,70.82
2022-10-06T02:08:01.718Z,70.82
2022-10-06T02:08:11.741Z,70.80
2022-10-06T02:08:21.975Z,70.74
2022-10-06T02:08:31.982Z,70.67
2022-10-06T02:08:41.900Z,70.71